createdAt,value
2023-03-06T00:00:26.203Z,70.63
2023-03-06T00:02:53.491Z,70.24
2023-03-06T00:05:20.044Z,70.71
2023-03-06T00:07:46.583Z,70.48
2023-03-06T00:10:22.039Z,70.45
2023-03-06T00:12:50.806Z,70.68
2023-03-06T00:15:17.249Z,71.42
2023-03-06T00:17:43.749Z,71.19
2023-03-06T00:20:11.930Z,71.26
2023-03-06T00:22:38.776Z,71.04
2023-03-06T00:25:06.647Z,70.84
2023-03-06T00:27:33.241Z,71.19
2023-03-06T00:30:01.039Z,71.48
2023-03-06T00:32:28.516Z,71.17
2023-03-06T00:34:56.024Z,71.59
2023-03-06T00:37:24.543Z,71.38
2023-03-06T00:39:51.771Z,71.12
2023-03-06T00:42:19.176Z,71.68
2023-03-06T00:44:45.907Z,71.47
2023-03-06T00:47:13.013Z,71.28
2023-03-06T00:49:39.539Z,71.40
2023-03-06T00:52:05.919Z,72.01
2023-03-06T00:54:32.306Z,71.76
2023-03-06T00:56:58.832Z,71.74
2023-03-06T00:59:25.462Z,72.10
2023-03-06T01:01:52.316Z,72.36
2023-03-06T01:04:19.284Z,72.30
2023-03-06T01:06:47.837Z,72.26
2023-03-06T01:09:14.261Z,72.08
2023-03-06T01:11:40.630Z,72.00
2023-03-06T01:14:07.270Z,72.34
2023-03-06T01:16:33.771Z,72.32
2023-03-06T01:19:00.236Z,72.44
2023-03-06T01:21:26.699Z,72.59
2023-03-06T01:23:53.101Z,72.54
2023-03-06T01:26:19.611Z,72.34
2023-03-06T01:28:46.006Z,72.50
2023-03-06T01:31:12.579Z,72.56
2023-03-06T01:33:39.024Z,72.90
2023-03-06T01:36:08.180Z,73.16
2023-03-06T01:38:36.068Z,73.13
2023-03-06T01:41:04.467Z,72.59
2023-03-06T01:43:34.664Z,72.92
2023-03-06T01:46:22.854Z,72.94
2023-03-06T01:48:53.991Z,73.18
2023-03-06T01:51:21.004Z,73.21
2023-03-06T01:53:48.755Z,73.28
2023-03-06T01:56:15.965Z,73.28
2023-03-06T01:58:44.203Z,73.37
2023-03-06T02:01:14.781Z,73.48
2023-03-06T02:03:43.688Z,73.34
2023-03-06T02:06:10.162Z,73.45
2023-03-06T02:08:37.008Z,73.58
2023-03-06T02:11:18.312Z,73.16
2023-03-06T02:13:48.466Z,73.38
2023-03-06T02:16:17.261Z,73.88
2023-03-06T02:18:46.079Z,73.37
2023-03-06T02:21:20.269Z,73.81
2023-03-06T02:24:16.518Z,73.48
2023-03-06T02:26:45.151Z,73.34
2023-03-06T02:29:11.772Z,73.96
2023-03-06T02:31:38.252Z,73.77
2023-03-06T02:34:16.633Z,74.67
2023-03-06T02:36:46.200Z,74.62
2023-03-06T02:39:13.687Z,74.60
2023-03-06T02:41:40.457Z,74.68
2023-03-06T02:44:08.080Z,75.02
2023-03-06T02:46:35.319Z,74.82
2023-03-06T02:49:01.950Z,75.08
2023-03-06T02:51:28.567Z,75.05
2023-03-06T02:53:55.050Z,75.09
2023-03-06T02:56:22.014Z,75.88
2023-03-06T02:58:48.565Z,75.75
2023-03-06T03:01:15.265Z,75.27
2023-03-06T03:03:42.753Z,75.75
2023-03-06T03:06:10.332Z,75.42
2023-03-06T03:08:36.900Z,75.99
2023-03-06T03:11:04.546Z,75.86
2023-03-06T03:13:39.050Z,75.71
2023-03-06T03:16:10.649Z,75.70
2023-03-06T03:18:37.302Z,75.99
2023-03-06T03:21:07.950Z,76.34
2023-03-06T03:23:34.807Z,76.29
2023-03-06T03:26:19.315Z,76.13
2023-03-06T03:29:01.426Z,76.56
2023-03-06T03:31:28.189Z,76.40
2023-03-06T03:33:54.727Z,76.56
2023-03-06T03:36:22.410Z,77.32
2023-03-06T03:38:49.125Z,77.19
2023-03-06T03:41:15.583Z,77.51
2023-03-06T03:43:42.871Z,77.45
2023-03-06T03:46:09.648Z,77.43
2023-03-06T03:48:36.482Z,77.59
2023-03-06T03:51:11.427Z,77.52
2023-03-06T03:53:41.441Z,77.66
2023-03-06T03:56:10.726Z,77.96
2023-03-06T03:58:44.352Z,77.69
2023-03-06T04:01:11.860Z,78.10
2023-03-06T04:03:38.426Z,78.32
2023-03-06T04:06:07.140Z,78.15
2023-03-06T04:08:34.000Z,78.55
2023-03-06T04:11:00.587Z,78.34
2023-03-06T04:13:28.112Z,78.63
2023-03-06T04:15:56.069Z,78.38
2023-03-06T04:18:23.861Z,78.33
2023-03-06T04:20:52.894Z,79.06
2023-03-06T04:23:21.144Z,78.98
2023-03-06T04:25:47.934Z,79.07
2023-03-06T04:28:14.684Z,79.03
2023-03-06T04:30:41.791Z,78.83
2023-03-06T04:33:08.407Z,78.99
2023-03-06T04:35:35.297Z,78.88
2023-03-06T04:38:06.746Z,78.67
2023-03-06T04:40:35.791Z,78.80
2023-03-06T04:43:04.456Z,78.21
2023-03-06T04:45:32.400Z,78.67
2023-03-06T04:47:59.090Z,78.35
2023-03-06T04:50:27.951Z,79.04
2023-03-06T04:52:54.463Z,79.20
2023-03-06T04:55:21.053Z,79.51
2023-03-06T04:57:48.022Z,79.11
2023-03-06T05:00:19.209Z,78.75
2023-03-06T05:02:46.100Z,78.51
2023-03-06T05:05:13.601Z,78.66
2023-03-06T05:07:40.058Z,78.74
2023-03-06T05:10:08.190Z,77.99
2023-03-06T05:12:39.268Z,77.97
2023-03-06T05:15:06.892Z,77.84
2023-03-06T05:17:33.608Z,76.95
2023-03-06T05:20:00.016Z,77.79
2023-03-06T05:22:26.500Z,77.56
2023-03-06T05:24:52.996Z,77.04
2023-03-06T05:27:19.479Z,77.40
2023-03-06T05:29:45.961Z,77.20
2023-03-06T05:32:12.721Z,77.05
2023-03-06T05:34:40.026Z,77.02
2023-03-06T05:37:06.511Z,76.89
2023-03-06T05:39:32.950Z,76.66
2023-03-06T05:41:59.414Z,76.97
2023-03-06T05:44:31.240Z,76.84
2023-03-06T05:46:57.688Z,76.75
2023-03-06T05:49:24.095Z,76.68
2023-03-06T05:51:50.553Z,77.10
2023-03-06T05:54:17.372Z,76.93
2023-03-06T05:56:43.788Z,76.71
2023-03-06T05:59:10.278Z,76.60
2023-03-06T06:01:36.719Z,76.96
2023-03-06T06:04:03.198Z,76.65
2023-03-06T06:06:29.590Z,76.44
2023-03-06T06:08:55.968Z,76.47
2023-03-06T06:11:22.411Z,76.64
2023-03-06T06:13:49.393Z,76.99
2023-03-06T06:16:16.770Z,76.99
2023-03-06T06:18:43.609Z,76.71
2023-03-06T06:21:11.800Z,77.05
2023-03-06T06:23:38.225Z,76.87
2023-03-06T06:26:07.374Z,76.73
2023-03-06T06:28:34.215Z,77.12
2023-03-06T06:31:00.757Z,76.99
2023-03-06T06:33:27.351Z,76.80
2023-03-06T06:35:53.836Z,77.46
2023-03-06T06:38:20.318Z,77.12
2023-03-06T06:41:04.230Z,77.25
2023-03-06T06:43:33.150Z,77.32
2023-03-06T06:46:15.439Z,77.22
2023-03-06T06:48:49.194Z,77.26
2023-03-06T06:51:16.965Z,77.13
2023-03-06T06:53:44.462Z,76.94
2023-03-06T06:56:10.942Z,77.09
2023-03-06T06:58:37.377Z,76.85
2023-03-06T07:01:11.608Z,76.98
2023-03-06T07:03:38.724Z,73.83
2023-03-06T07:06:06.549Z,72.99
2023-03-06T07:08:33.669Z,73.33
2023-03-06T07:11:07.129Z,73.41
2023-03-06T07:13:34.385Z,74.15
2023-03-06T07:16:01.419Z,74.38
2023-03-06T07:18:28.084Z,74.37
2023-03-06T07:20:54.948Z,74.24
2023-03-06T07:23:21.335Z,74.97
2023-03-06T07:25:47.922Z,74.55
2023-03-06T07:28:14.376Z,74.17
2023-03-06T07:30:41.637Z,73.41
2023-03-06T07:33:08.356Z,73.70
2023-03-06T07:35:34.918Z,73.68
2023-03-06T07:38:01.323Z,73.79
2023-03-06T07:40:27.963Z,73.95
2023-03-06T07:43:06.019Z,73.89
2023-03-06T07:45:42.666Z,73.77
2023-03-06T07:48:09.957Z,73.73
2023-03-06T07:50:36.400Z,73.96
2023-03-06T07:53:02.822Z,74.56
2023-03-06T07:55:29.237Z,74.10
2023-03-06T07:57:55.764Z,74.12
2023-03-06T08:00:22.401Z,73.94
2023-03-06T08:02:49.562Z,73.75
2023-03-06T08:05:17.651Z,74.26
2023-03-06T08:07:45.410Z,72.79
2023-03-06T08:10:16.849Z,73.37
2023-03-06T08:12:43.401Z,73.16
2023-03-06T08:15:11.651Z,73.20
2023-03-06T08:17:38.241Z,71.67
2023-03-06T08:20:05.824Z,72.48
2023-03-06T08:22:33.876Z,72.28
2023-03-06T08:25:00.307Z,71.15
2023-03-06T08:27:26.710Z,70.26
2023-03-06T08:29:53.168Z,70.40
2023-03-06T08:32:19.663Z,69.57
2023-03-06T08:34:46.508Z,68.83
2023-03-06T08:37:12.884Z,68.69
2023-03-06T08:39:39.295Z,67.16
2023-03-06T08:42:05.753Z,66.32
2023-03-06T08:44:32.268Z,66.99
2023-03-06T08:46:58.765Z,66.46
2023-03-06T08:49:25.437Z,66.26
2023-03-06T08:51:51.888Z,66.45
2023-03-06T08:54:18.284Z,66.08
2023-03-06T08:56:44.803Z,65.19
2023-03-06T08:59:13.293Z,64.65
2023-03-06T09:01:40.293Z,63.98
2023-03-06T09:04:09.298Z,63.00
2023-03-06T09:06:39.655Z,62.53
2023-03-06T09:09:07.279Z,62.12
2023-03-06T09:11:33.940Z,61.66
2023-03-06T09:14:00.357Z,60.49
2023-03-06T09:16:26.978Z,59.48
2023-03-06T09:18:54.232Z,58.12
2023-03-06T09:21:22.003Z,57.87
2023-03-06T09:23:48.385Z,58.09
2023-03-06T09:26:14.924Z,56.83
2023-03-06T09:28:41.314Z,55.58
2023-03-06T09:31:12.964Z,56.41
2023-03-06T09:33:39.539Z,57.22
2023-03-06T09:36:07.778Z,57.13
2023-03-06T09:38:35.014Z,55.59
2023-03-06T09:43:44.591Z,55.03
2023-03-06T09:46:46.447Z,56.10
2023-03-06T09:49:12.834Z,56.80
2023-03-06T09:51:57.398Z,56.17
2023-03-06T09:54:46.335Z,55.42
2023-03-06T09:57:29.022Z,55.57
2023-03-06T09:59:59.963Z,55.79
2023-03-06T10:02:41.848Z,55.89
2023-03-06T10:05:25.891Z,55.09
2023-03-06T10:08:01.734Z,54.29
2023-03-06T10:10:41.974Z,55.20
2023-03-06T10:13:28.612Z,55.01
2023-03-06T10:16:09.972Z,54.21
2023-03-06T10:18:38.950Z,55.24
2023-03-06T10:21:19.707Z,55.25
2023-03-06T10:23:54.591Z,54.74
2023-03-06T10:26:27.800Z,54.41
2023-03-06T10:29:12.554Z,55.54
2023-03-06T10:31:44.571Z,56.63
2023-03-06T10:34:32.634Z,56.26
2023-03-06T10:37:09.735Z,55.67
2023-03-06T10:39:36.295Z,55.91
2023-03-06T10:42:03.149Z,56.97
2023-03-06T10:44:30.270Z,57.41
2023-03-06T10:46:56.677Z,57.06
2023-03-06T10:49:29.830Z,57.42
2023-03-06T10:52:00.759Z,57.34
2023-03-06T10:54:29.827Z,57.37
2023-03-06T10:56:56.319Z,58.03
2023-03-06T10:59:29.254Z,57.91
2023-03-06T11:01:58.658Z,57.92
2023-03-06T11:04:31.695Z,58.62
2023-03-06T11:07:15.325Z,59.17
2023-03-06T11:09:44.581Z,59.05
2023-03-06T11:12:19.780Z,60.04
2023-03-06T11:14:46.218Z,60.15
2023-03-06T11:17:30.852Z,60.48
2023-03-06T11:20:16.911Z,60.60
2023-03-06T11:22:49.275Z,60.48
2023-03-06T11:25:18.374Z,60.81
2023-03-06T11:27:46.864Z,61.66
2023-03-06T11:30:30.526Z,61.74
2023-03-06T11:33:02.577Z,61.79
2023-03-06T11:35:38.106Z,61.51
2023-03-06T11:38:34.037Z,61.94
2023-03-06T11:41:05.802Z,62.04
2023-03-06T11:43:53.148Z,61.85
2023-03-06T11:46:28.680Z,62.02
2023-03-06T11:49:17.196Z,61.18
2023-03-06T11:51:51.401Z,61.60
2023-03-06T11:54:17.917Z,62.12
2023-03-06T11:56:51.616Z,62.49
2023-03-06T11:59:54.747Z,63.52
2023-03-06T12:03:01.777Z,63.98
2023-03-06T12:05:36.337Z,63.60
2023-03-06T12:08:12.840Z,63.62
2023-03-06T12:10:51.739Z,64.20
2023-03-06T12:13:44.638Z,64.31
2023-03-06T12:16:39.194Z,64.53
2023-03-06T12:19:39.512Z,65.25
2023-03-06T12:22:35.826Z,65.06
2023-03-06T12:25:20.526Z,65.16
2023-03-06T12:28:19.330Z,65.14
2023-03-06T12:31:04.629Z,64.75
2023-03-06T12:33:49.507Z,64.68
2023-03-06T12:36:36.881Z,64.16
2023-03-06T12:39:09.659Z,64.26
2023-03-06T12:42:23.039Z,63.34
2023-03-06T12:45:14.577Z,63.05
2023-03-06T12:47:47.240Z,62.98
2023-03-06T12:50:21.777Z,63.18
2023-03-06T12:52:49.237Z,62.86
2023-03-06T12:55:23.181Z,62.10
2023-03-06T12:57:50.971Z,61.91
2023-03-06T13:01:03.605Z,61.52
2023-03-06T13:03:48.220Z,60.46
2023-03-06T13:06:50.724Z,60.95
2023-03-06T13:09:37.200Z,61.21
2023-03-06T13:12:42.148Z,60.89
2023-03-06T13:15:46.261Z,61.20
2023-03-06T13:18:21.695Z,60.18
2023-03-06T13:20:49.006Z,59.47
2023-03-06T13:23:58.373Z,59.37
2023-03-06T13:26:24.885Z,58.89
2023-03-06T13:28:53.997Z,58.93
2023-03-06T13:31:34.150Z,59.06
2023-03-06T13:34:05.460Z,58.82
2023-03-06T13:36:33.999Z,58.51
2023-03-06T13:39:13.904Z,58.11
2023-03-06T13:41:42.105Z,58.12
2023-03-06T13:44:23.715Z,58.50
2023-03-06T13:47:17.425Z,58.58
2023-03-06T13:49:47.503Z,57.80
2023-03-06T13:52:31.571Z,57.97
2023-03-06T13:55:08.343Z,57.71
2023-03-06T13:57:55.098Z,57.78
2023-03-06T14:00:30.451Z,57.67
2023-03-06T14:03:27.469Z,57.16
2023-03-06T14:05:54.117Z,57.09
2023-03-06T14:08:32.984Z,55.71
2023-03-06T14:11:05.596Z,56.53
2023-03-06T14:13:47.526Z,56.86
2023-03-06T14:16:27.840Z,57.29
2023-03-06T14:18:57.387Z,56.85
2023-03-06T14:21:30.631Z,56.65
2023-03-06T14:24:02.407Z,56.96
2023-03-06T14:26:32.762Z,55.82
2023-03-06T14:29:03.739Z,56.49
2023-03-06T14:31:41.182Z,56.06
2023-03-06T14:34:15.850Z,55.70
2023-03-06T14:36:46.884Z,55.65
2023-03-06T14:39:36.178Z,56.23
2023-03-06T14:42:26.280Z,55.46
2023-03-06T14:45:24.786Z,55.13
2023-03-06T14:47:52.760Z,54.45
2023-03-06T14:50:24.406Z,54.68
2023-03-06T14:52:55.741Z,55.50
2023-03-06T14:55:24.772Z,57.00
2023-03-06T14:58:01.224Z,58.24
2023-03-06T15:00:36.265Z,58.39
2023-03-06T15:03:07.526Z,58.48
2023-03-06T15:05:34.876Z,58.60
2023-03-06T15:08:06.570Z,58.49
2023-03-06T15:10:35.103Z,58.59
2023-03-06T15:13:31.648Z,59.20
2023-03-06T15:15:59.696Z,59.07
2023-03-06T15:18:55.468Z,59.46
2023-03-06T15:21:24.083Z,59.10
2023-03-06T15:23:52.506Z,59.17
2023-03-06T15:26:31.414Z,59.46
2023-03-06T15:29:25.858Z,58.34
2023-03-06T15:31:52.293Z,57.70
2023-03-06T15:34:23.458Z,57.51
2023-03-06T15:36:55.695Z,57.55
2023-03-06T15:39:30.915Z,58.37
2023-03-06T15:42:03.643Z,58.62
2023-03-06T15:44:32.550Z,58.90
2023-03-06T15:47:08.487Z,60.37
2023-03-06T15:49:37.775Z,61.15
2023-03-06T15:52:07.640Z,61.22
2023-03-06T15:54:34.552Z,61.76
2023-03-06T15:57:05.193Z,62.09
2023-03-06T15:59:37.447Z,62.94
2023-03-06T16:02:16.325Z,62.80
2023-03-06T16:04:43.158Z,61.54
2023-03-06T16:07:09.740Z,61.66
2023-03-06T16:09:36.649Z,61.33
2023-03-06T16:12:03.463Z,61.71
2023-03-06T16:14:30.031Z,61.33
2023-03-06T16:16:57.365Z,60.86
2023-03-06T16:19:27.329Z,61.02
2023-03-06T16:21:55.609Z,60.89
2023-03-06T16:24:22.482Z,61.14
2023-03-06T16:26:51.558Z,60.85
2023-03-06T16:29:23.495Z,61.08
2023-03-06T16:31:50.625Z,61.28
2023-03-06T16:34:19.526Z,60.97
2023-03-06T16:36:45.940Z,60.69
2023-03-06T16:39:17.162Z,60.87
2023-03-06T16:41:45.698Z,60.80
2023-03-06T16:44:12.918Z,60.73
2023-03-06T16:46:41.996Z,60.90
2023-03-06T16:49:15.726Z,61.09
2023-03-06T16:51:42.190Z,61.44
2023-03-06T16:54:08.923Z,62.71
2023-03-06T16:56:35.298Z,63.47
2023-03-06T16:59:01.672Z,64.10
2023-03-06T17:01:28.055Z,64.81
2023-03-06T17:03:54.806Z,65.49
2023-03-06T17:06:22.541Z,66.07
2023-03-06T17:08:49.902Z,66.39
2023-03-06T17:11:17.293Z,67.33
2023-03-06T17:13:43.685Z,67.41
2023-03-06T17:16:15.822Z,67.52
2023-03-06T17:18:44.314Z,69.55
2023-03-06T17:21:11.709Z,69.26
2023-03-06T17:23:38.237Z,69.16
2023-03-06T17:26:08.278Z,70.00
2023-03-06T17:28:36.192Z,70.48
2023-03-06T17:31:05.217Z,72.94
2023-03-06T17:33:31.838Z,71.85
2023-03-06T17:36:00.250Z,72.05
2023-03-06T17:38:27.647Z,72.44
2023-03-06T17:40:54.255Z,72.86
2023-03-06T17:43:21.975Z,72.76
2023-03-06T17:45:48.488Z,73.42
2023-03-06T17:48:15.017Z,73.80
2023-03-06T17:50:41.480Z,73.92
2023-03-06T17:53:07.916Z,74.30
2023-03-06T17:55:34.357Z,74.96
2023-03-06T17:58:00.787Z,74.22
2023-03-06T18:00:27.219Z,74.47
2023-03-06T18:02:53.634Z,75.23
2023-03-06T18:05:21.665Z,74.65
2023-03-06T18:07:48.102Z,74.61
2023-03-06T18:10:14.540Z,74.80
2023-03-06T18:12:40.951Z,74.09
2023-03-06T18:15:07.942Z,75.13
2023-03-06T18:17:34.418Z,74.90
2023-03-06T18:20:00.823Z,75.18
2023-03-06T18:22:27.245Z,75.65
2023-03-06T18:24:53.679Z,75.94
2023-03-06T18:27:21.087Z,75.81
2023-03-06T18:29:47.858Z,75.78
2023-03-06T18:32:14.648Z,75.97
2023-03-06T18:34:41.099Z,75.80
2023-03-06T18:37:07.506Z,76.28
2023-03-06T18:39:33.948Z,75.47
2023-03-06T18:42:00.490Z,76.11
2023-03-06T18:44:27.058Z,76.31
2023-03-06T18:46:53.539Z,76.55
2023-03-06T18:49:20.018Z,76.81
2023-03-06T18:51:48.104Z,76.25
2023-03-06T18:54:14.546Z,76.45
2023-03-06T18:56:43.996Z,76.76
2023-03-06T18:59:16.084Z,77.32
2023-03-06T19:01:45.028Z,77.15
2023-03-06T19:04:12.041Z,76.94
2023-03-06T19:06:39.854Z,77.43
2023-03-06T19:09:06.810Z,77.56
2023-03-06T19:11:33.974Z,77.37
2023-03-06T19:14:00.744Z,77.68
2023-03-06T19:16:29.602Z,77.58
2023-03-06T19:18:57.233Z,77.65
2023-03-06T19:21:26.546Z,77.03
2023-03-06T19:23:53.646Z,78.06
2023-03-06T19:26:20.617Z,77.62
2023-03-06T19:28:48.379Z,77.61
2023-03-06T19:31:27.119Z,77.63
2023-03-06T19:33:54.783Z,77.98
2023-03-06T19:36:27.381Z,77.85
2023-03-06T19:38:59.033Z,78.08
2023-03-06T19:41:26.282Z,78.53
2023-03-06T19:43:55.730Z,78.57
2023-03-06T19:46:23.294Z,78.26
2023-03-06T19:48:55.160Z,78.55
2023-03-06T19:51:21.563Z,78.63
2023-03-06T19:53:47.951Z,78.35
2023-03-06T19:56:18.518Z,78.73
2023-03-06T19:58:44.881Z,79.26
2023-03-06T20:01:13.965Z,79.21
2023-03-06T20:03:40.872Z,79.31
2023-03-06T20:06:11.791Z,79.53
2023-03-06T20:08:38.283Z,80.45
2023-03-06T20:11:04.955Z,80.10
2023-03-06T20:13:31.500Z,80.26
2023-03-06T20:16:02.568Z,80.26
2023-03-06T20:18:29.086Z,80.24
2023-03-06T20:21:00.061Z,80.03
2023-03-06T20:23:27.463Z,80.43
2023-03-06T20:25:53.960Z,80.79
2023-03-06T20:28:21.093Z,80.62
2023-03-06T20:30:47.585Z,80.64
2023-03-06T20:33:15.249Z,80.09
2023-03-06T20:35:42.613Z,80.58
2023-03-06T20:38:09.347Z,80.34
2023-03-06T20:40:42.882Z,80.92
2023-03-06T20:43:09.498Z,80.94
2023-03-06T20:45:36.083Z,80.69
2023-03-06T20:48:02.530Z,80.72
2023-03-06T20:50:29.009Z,81.62
2023-03-06T20:52:56.564Z,81.89
2023-03-06T20:55:23.152Z,81.18
2023-03-06T20:57:52.498Z,81.28
2023-03-06T21:00:20.780Z,81.84
2023-03-06T21:02:47.194Z,81.40
2023-03-06T21:05:13.754Z,81.30
2023-03-06T21:07:40.228Z,81.52
2023-03-06T21:10:07.515Z,81.36
2023-03-06T21:12:33.922Z,81.40
2023-03-06T21:15:00.366Z,81.27
2023-03-06T21:17:28.089Z,80.88
2023-03-06T21:19:54.571Z,80.86
2023-03-06T21:22:20.986Z,80.86
2023-03-06T21:24:47.341Z,80.43
2023-03-06T21:27:13.786Z,80.79
2023-03-06T21:29:40.190Z,80.27
2023-03-06T21:32:06.580Z,80.36
2023-03-06T21:34:33.260Z,80.38
2023-03-06T21:36:59.681Z,79.91
2023-03-06T21:39:26.082Z,80.06
2023-03-06T21:41:52.505Z,79.90
2023-03-06T21:44:19.561Z,79.14
2023-03-06T21:46:45.914Z,79.90
2023-03-06T21:49:12.385Z,79.99
2023-03-06T21:51:38.868Z,79.81
2023-03-06T21:54:06.161Z,79.80
2023-03-06T21:56:33.380Z,80.35
2023-03-06T21:58:59.966Z,80.09
2023-03-06T22:01:28.595Z,79.96
2023-03-06T22:03:55.550Z,80.14
2023-03-06T22:06:25.072Z,80.02
2023-03-06T22:08:51.564Z,79.93
2023-03-06T22:11:20.447Z,79.75
2023-03-06T22:13:50.591Z,79.65
2023-03-06T22:16:17.550Z,79.50
2023-03-06T22:18:45.989Z,79.79
2023-03-06T22:21:15.039Z,79.44
2023-03-06T22:23:41.729Z,80.17
2023-03-06T22:26:12.260Z,79.64
2023-03-06T22:28:40.913Z,79.92
2023-03-06T22:31:16.723Z,80.30
2023-03-06T22:33:43.695Z,79.90
2023-03-06T22:36:15.413Z,79.89
2023-03-06T22:38:44.292Z,80.04
2023-03-06T22:41:12.344Z,80.58
2023-03-06T22:43:38.797Z,80.21
2023-03-06T22:46:09.061Z,80.28
2023-03-06T22:48:35.657Z,80.22
2023-03-06T22:51:10.308Z,80.00
2023-03-06T22:53:37.652Z,80.22
2023-03-06T22:56:07.873Z,80.10
2023-03-06T22:58:37.153Z,80.58
2023-03-06T23:01:08.932Z,80.11
2023-03-06T23:03:37.289Z,80.37
2023-03-06T23:06:16.834Z,80.12
2023-03-06T23:08:45.110Z,80.51
2023-03-06T23:11:14.268Z,80.33
2023-03-06T23:13:59.452Z,80.98
2023-03-06T23:16:45.051Z,80.73
2023-03-06T23:19:30.249Z,80.53
2023-03-06T23:22:15.371Z,80.36
2023-03-06T23:25:00.414Z,80.83
2023-03-06T23:27:27.164Z,80.61
2023-03-06T23:29:58.755Z,80.28
2023-03-06T23:32:25.292Z,80.32
2023-03-06T23:34:55.175Z,80.55
2023-03-06T23:37:21.595Z,80.69
2023-03-06T23:39:48.054Z,80.16
2023-03-06T23:42:14.746Z,80.64
2023-03-06T23:44:41.183Z,80.40
2023-03-06T23:47:07.697Z,80.33
2023-03-06T23:49:34.340Z,80.15
2023-03-06T23:52:00.770Z,80.23
2023-03-06T23:54:27.207Z,80.04
2023-03-06T23:56:53.656Z,80.35
2023-03-06T23:59:20.060Z,80.98
